Lake Secor, New York
Current Conditions -  °F | °C
As of 12:53 AM on Thursday 29 Jan 2015 (Local Time) from KDXR Reporting Station
Haze Haze  
Wind Chill:   Ceiling: Unl
Heat Index:   Visibility: 6mi
Dew Point: -3°   Wind: 0mph
Humidity: 59%   Direction: NA
Pressure: 30.27"   Gusts: NA
Location:  41.3759°N, 73.7482°W
Report Text: KDXR 290553Z AUTO 00000KT 6SM HZ CLR M13/M19 A3027 RMK AO2 SLP256 T11281194 11050 21128 52012
Loading
Personal Weather Stations






























Interactive Weather Map New forecast layout! Learn more

10-Day Weather Forecast

Advertisements
Track Severe Weather on mobile